Terminal Aerodrome Forecast
Issued by NWS Milwaukee/Sullivan, WI

Home | Current Version | Previous Version | Text Only | Print | Product List | Glossary On
Versions: 1 2 3 4 5 6 7 8 9 10 11 12 13 14 15 16 17 18 19 20 21 22 23 24 25 26 27 28 29 30 31 32 33 34 35 36 37
000
FTUS43 KMKX 262339
TAFMKE
TAF
KMKE 262339Z 2700/2806 14004KT P6SM SCT060 BKN100
     FM270600 00000KT 5SM BR SCT200
     FM271300 VRB03KT P6SM FEW200
     FM271700 14007KT P6SM SCT250
     FM280400 VRB03KT P6SM BKN140=

USA.gov is the U.S. government's official web portal to all federal, state and local government web resources and services.